»·PEaware :: UAL277 KRNO-KSJC

UAL277 :: KRNO-KSJC

FLIGHT INFORMATION

Flight Status: Arrived
Operator:
United Airlines
More flights by this operator :: More flights under this callsign
Pilot: Pratham R. (19019)
Aircraft: BOEING 737-700
(B737)
More flights by this aircraft type
Origin: KRNO Reno/Tahoe Intl
United States
Destination: KSJC Mineta San Jose Intl
United States
More flights between these airports :: More routes between these airports
Route: +ZEFFR6 MRLET DARBI STUBL RAZRR4
File this flight plan on PilotEdge
Remarks: RMK / SIMBRIEF
Altitude:
(Current/Filed)
39,000ft
Speed:
(Current/Filed)
459kts
Departed: 10-Aug-20 06:05 PM
Arrived: 10-Aug-20 06:48 PM
Distance/Time
Traveled:
163nm/0:42
Distance/Time
To Go:
Arrived

Flight Plot

Page will automatically refresh every two minutes.

Flight plan parsing failed; only flown route is shown


Map Options




Map Legend


Flown Route
Filed Route
Departure Airport
Arrival Airport
Navaid (VOR, NDB)
Fix

Horizontal Profiles

Position Reports

Time Latitude Longitude Heading Altitude Ground
Speed
10-Aug-20 17:35 39.503088 -119.772490 180 4423ft 0kts
10-Aug-20 17:35 39.503088 -119.772490 180 4423ft 0kts
10-Aug-20 17:37 39.503088 -119.772490 180 4423ft 0kts
10-Aug-20 17:38 39.503088 -119.772490 180 4423ft 0kts
10-Aug-20 17:38 39.503088 -119.772490 180 4423ft 0kts
10-Aug-20 17:39 39.503088 -119.772490 180 4423ft 0kts
10-Aug-20 17:41 39.503088 -119.772490 180 4423ft 0kts
10-Aug-20 17:41 39.503088 -119.772490 180 4423ft 0kts
10-Aug-20 17:42 39.503088 -119.772490 180 4423ft 0kts
10-Aug-20 17:43 39.503088 -119.772490 180 4423ft 0kts
10-Aug-20 17:44 39.503088 -119.772490 180 4423ft 0kts
10-Aug-20 17:45 39.503088 -119.772490 180 4423ft 0kts
10-Aug-20 17:46 39.503088 -119.772490 180 4423ft 0kts
10-Aug-20 17:47 39.503088 -119.772490 180 4423ft 0kts
10-Aug-20 17:48 39.503088 -119.772490 180 4423ft 0kts
10-Aug-20 17:49 39.503088 -119.772490 180 4423ft 0kts
10-Aug-20 17:50 39.503088 -119.772490 180 4423ft 0kts
10-Aug-20 17:51 39.503088 -119.772490 180 4423ft 0kts
10-Aug-20 17:52 39.503088 -119.772490 180 4423ft 0kts
10-Aug-20 17:53 39.503330 -119.772489 179 4423ft 1kts
10-Aug-20 17:54 39.503739 -119.772880 100 4423ft 2kts
10-Aug-20 17:55 39.503745 -119.773058 88 4423ft 0kts
10-Aug-20 17:56 39.503745 -119.773058 88 4423ft 0kts
10-Aug-20 17:57 39.503745 -119.773058 88 4423ft 0kts
10-Aug-20 17:58 39.503745 -119.773057 88 4423ft 0kts
10-Aug-20 17:59 39.503746 -119.773006 88 4423ft 1kts
10-Aug-20 18:00 39.504290 -119.771512 1 4423ft 8kts
10-Aug-20 18:01 39.508567 -119.771535 358 4423ft 22kts
10-Aug-20 18:02 39.513740 -119.770883 85 4423ft 10kts
10-Aug-20 18:03 39.513686 -119.767034 116 4423ft 8kts
10-Aug-20 18:04 39.501163 -119.766773 180 4423ft 146kts
10-Aug-20 18:05 39.452395 -119.769002 187 6236ft 194kts
10-Aug-20 18:06 39.385934 -119.770957 181 7532ft 280kts
10-Aug-20 18:07 39.306531 -119.773625 192 10463ft 300kts
10-Aug-20 18:08 39.220416 -119.798586 193 12959ft 338kts
10-Aug-20 18:09 39.126346 -119.822738 184 16208ft 355kts
10-Aug-20 18:10 39.025525 -119.813751 176 19244ft 372kts
10-Aug-20 18:11 38.920362 -119.801723 176 21849ft 392kts
10-Aug-20 18:12 38.811958 -119.789383 176 23830ft 396kts
10-Aug-20 18:13 38.700410 -119.776745 177 26254ft 408kts
10-Aug-20 18:14 38.585229 -119.763707 177 27278ft 429kts
10-Aug-20 18:15 38.465055 -119.750145 177 27307ft 432kts
10-Aug-20 18:16 38.345363 -119.736693 177 27294ft 433kts
10-Aug-20 18:17 38.226760 -119.746089 191 27301ft 428kts
10-Aug-20 18:18 38.109355 -119.770227 190 27302ft 423kts
10-Aug-20 18:19 37.994564 -119.793501 190 27121ft 416kts
10-Aug-20 18:20 37.880650 -119.816511 191 26929ft 413kts
10-Aug-20 18:21 37.767782 -119.839262 190 26872ft 411kts
10-Aug-20 18:22 37.653045 -119.862300 190 26865ft 431kts
10-Aug-20 18:23 37.538431 -119.885251 190 26860ft 419kts
10-Aug-20 18:24 37.422371 -119.908434 190 26864ft 424kts
10-Aug-20 18:25 37.312437 -119.954657 214 24223ft 412kts
10-Aug-20 18:26 37.236856 -120.051525 239 23866ft 394kts
10-Aug-20 18:27 37.203272 -120.181162 260 23859ft 391kts
10-Aug-20 18:28 37.188507 -120.316461 262 23855ft 393kts
10-Aug-20 18:29 37.173783 -120.450185 262 23062ft 392kts
10-Aug-20 18:30 37.159047 -120.582800 262 21629ft 378kts
10-Aug-20 18:31 37.144786 -120.710013 261 19368ft 366kts
10-Aug-20 18:32 37.130821 -120.834532 262 17171ft 355kts
10-Aug-20 18:33 37.117420 -120.955390 262 15016ft 346kts
10-Aug-20 18:34 37.105041 -121.065998 261 13115ft 334kts
10-Aug-20 18:35 37.104076 -121.180125 276 11090ft 325kts
10-Aug-20 18:36 37.116405 -121.285205 276 10258ft 286kts
10-Aug-20 18:37 37.127361 -121.381168 276 9009ft 274kts
10-Aug-20 18:38 37.137841 -121.474883 276 7634ft 268kts
10-Aug-20 18:39 37.148053 -121.566427 276 6292ft 261kts
10-Aug-20 18:40 37.157541 -121.652279 275 5023ft 248kts
10-Aug-20 18:41 37.179545 -121.726067 309 4258ft 213kts
10-Aug-20 18:42 37.221333 -121.775347 316 3614ft 203kts
10-Aug-20 18:43 37.259490 -121.816995 316 2620ft 170kts
10-Aug-20 18:44 37.293226 -121.854214 316 1696ft 146kts
10-Aug-20 18:45 37.322864 -121.885953 316 949ft 133kts
10-Aug-20 18:46 37.351033 -121.917036 317 231ft 135kts
10-Aug-20 18:47 37.366987 -121.934021 6 49ft 15kts
10-Aug-20 18:48 37.368776 -121.932112 44 47ft 13kts
10-Aug-20 18:49 37.367687 -121.929557 139 48ft 11kts
10-Aug-20 18:50 37.364936 -121.926493 138 52ft 13kts
10-Aug-20 18:51 37.363198 -121.924517 74 55ft 1kts
10-Aug-20 18:52 37.364447 -121.925308 36 53ft 2kts
10-Aug-20 18:53 37.364655 -121.925034 47 53ft 0kts
10-Aug-20 18:54 37.364655 -121.925034 47 53ft 0kts
10-Aug-20 18:55 37.364655 -121.925034 47 53ft 0kts
10-Aug-20 18:56 37.364655 -121.925034 47 53ft 0kts
10-Aug-20 18:57 37.364655 -121.925034 47 53ft 0kts
10-Aug-20 18:58 37.364655 -121.925034 47 53ft 0kts
10-Aug-20 18:59 37.364655 -121.925034 47 53ft 0kts
10-Aug-20 19:00 37.364655 -121.925034 47 53ft 0kts
10-Aug-20 19:01 37.364655 -121.925034 47 53ft 0kts

Navigation Log

Ident Type
Flight plan parsing failed, navigation log unavailable